Time;durP1;ratioP1;P1;durP2;ratioP2;P2;SDS_P1;SDS_P2;PMS_P1;PMS_P2;Temp;Humidity;BMP_temperature;BMP_pressure;BME280_temperature;BME280_humidity;BME280_pressure;Samples;Min_cycle;Max_cycle;Signal;HPM_P1;HPM_P2
2023/12/23 00:00:35;;;;;;;8.13;2.53;;;10.90;99.90;;;;;;5073955;28;20176;-73
2023/12/23 00:03:00;;;;;;;2.53;1.77;;;10.80;99.90;;;;;;5073660;28;20195;-74
2023/12/23 00:05:26;;;;;;;8.43;2.37;;;10.80;99.90;;;;;;5073783;28;20209;-73
2023/12/23 00:07:52;;;;;;;7.90;2.37;;;10.80;99.90;;;;;;5073958;28;20592;-73
2023/12/23 00:10:17;;;;;;;8.30;2.13;;;10.80;99.90;;;;;;5073866;28;20632;-73
2023/12/23 00:12:43;;;;;;;7.43;2.20;;;10.80;99.90;;;;;;5073742;28;20220;-72
2023/12/23 00:15:09;;;;;;;4.37;2.00;;;10.80;99.90;;;;;;5073689;28;20647;-72
2023/12/23 00:17:35;;;;;;;8.90;2.67;;;10.80;99.90;;;;;;5073471;28;20161;-73
2023/12/23 00:20:00;;;;;;;8.67;2.03;;;10.70;99.90;;;;;;5073738;28;20165;-73
2023/12/23 00:22:26;;;;;;;7.47;2.50;;;10.70;99.90;;;;;;5072405;28;20315;-74
2023/12/23 00:24:51;;;;;;;5.97;2.40;;;10.60;99.90;;;;;;5073743;28;20161;-72
2023/12/23 00:27:17;;;;;;;8.00;2.30;;;10.50;99.90;;;;;;5084780;28;20217;-74
2023/12/23 00:29:42;;;;;;;6.67;2.40;;;10.60;99.90;;;;;;5114286;28;20163;-73
2023/12/23 00:32:08;;;;;;;7.67;2.27;;;10.70;99.90;;;;;;5113978;28;20664;-74
2023/12/23 00:34:34;;;;;;;7.87;2.53;;;10.70;99.90;;;;;;5095528;28;20590;-73
2023/12/23 00:36:59;;;;;;;8.40;2.37;;;10.60;99.90;;;;;;5114279;28;20175;-72
2023/12/23 00:39:25;;;;;;;6.20;2.03;;;10.70;99.90;;;;;;5114313;28;20171;-73
2023/12/23 00:41:51;;;;;;;6.83;2.17;;;10.70;99.90;;;;;;5095828;28;20182;-73
2023/12/23 00:44:16;;;;;;;5.93;1.93;;;10.70;99.90;;;;;;5113870;28;20167;-73
2023/12/23 00:46:42;;;;;;;6.33;2.10;;;10.70;99.90;;;;;;5095194;28;20178;-73
2023/12/23 00:49:07;;;;;;;6.40;2.20;;;10.80;99.90;;;;;;5114031;28;20508;-73
2023/12/23 00:51:33;;;;;;;7.30;2.30;;;10.80;99.90;;;;;;5113777;28;20179;-72
2023/12/23 00:53:59;;;;;;;6.10;2.07;;;10.80;99.90;;;;;;5113881;28;20171;-73
2023/12/23 00:56:24;;;;;;;6.83;2.00;;;10.80;99.90;;;;;;5113748;28;20690;-73
2023/12/23 00:58:50;;;;;;;9.13;2.50;;;10.80;99.90;;;;;;5113581;28;20181;-72
2023/12/23 01:01:16;;;;;;;7.67;2.53;;;10.80;99.90;;;;;;5095207;28;20171;-74
2023/12/23 01:03:43;;;;;;;8.27;2.83;;;10.80;99.90;;;;;;5113836;28;20163;-73
2023/12/23 01:06:08;;;;;;;4.50;1.67;;;10.80;99.90;;;;;;5113629;28;20553;-73
2023/12/23 01:08:34;;;;;;;6.13;2.13;;;10.70;99.90;;;;;;5095383;28;20167;-73
2023/12/23 01:11:00;;;;;;;6.93;2.00;;;10.70;99.90;;;;;;5113609;28;20629;-73
2023/12/23 01:13:26;;;;;;;3.23;2.00;;;10.80;99.90;;;;;;5113308;28;20195;-73
2023/12/23 01:15:51;;;;;;;4.97;2.20;;;10.80;99.90;;;;;;5113289;28;20199;-73
2023/12/23 01:18:17;;;;;;;7.27;2.00;;;10.80;99.90;;;;;;5117229;28;20634;-73
2023/12/23 01:20:43;;;;;;;7.57;2.33;;;10.80;99.90;;;;;;5117854;28;20174;-73
2023/12/23 01:23:09;;;;;;;7.47;2.07;;;10.80;99.90;;;;;;5099407;28;20648;-72
2023/12/23 01:25:35;;;;;;;9.30;3.10;;;10.80;99.90;;;;;;5117808;28;20627;-73
2023/12/23 01:28:04;;;;;;;7.27;2.13;;;10.90;99.90;;;;;;5117579;28;20221;-73
2023/12/23 01:30:33;;;;;;;5.90;2.07;;;10.80;99.90;;;;;;5117354;28;20223;-72
2023/12/23 01:32:59;;;;;;;7.23;1.97;;;10.80;99.90;;;;;;5117704;28;20219;-72
2023/12/23 01:35:25;;;;;;;7.03;2.43;;;10.80;99.90;;;;;;5117219;28;20195;-72
2023/12/23 01:37:50;;;;;;;6.17;2.30;;;10.80;99.90;;;;;;5117492;28;20163;-72
2023/12/23 01:40:16;;;;;;;7.73;2.13;;;10.70;99.90;;;;;;5117672;28;20179;-72
2023/12/23 01:42:42;;;;;;;6.07;1.83;;;10.70;99.90;;;;;;5117296;28;20168;-72
2023/12/23 01:45:08;;;;;;;6.73;2.07;;;10.70;99.90;;;;;;5098752;28;20171;-71
2023/12/23 01:47:35;;;;;;;9.43;2.20;;;10.80;99.90;;;;;;5117360;28;20182;-71
2023/12/23 01:50:03;;;;;;;8.67;2.20;;;10.80;99.90;;;;;;5117265;28;20163;-72
2023/12/23 01:52:30;;;;;;;8.80;2.33;;;10.70;99.90;;;;;;5098978;28;20512;-72
2023/12/23 01:54:56;;;;;;;8.60;1.90;;;10.70;99.90;;;;;;5117200;28;20206;-72
2023/12/23 01:57:22;;;;;;;8.90;1.97;;;10.70;99.90;;;;;;5116910;28;20675;-71
2023/12/23 01:59:47;;;;;;;5.50;1.87;;;10.70;99.90;;;;;;5116807;28;20175;-72
2023/12/23 02:02:13;;;;;;;7.77;2.13;;;10.70;99.90;;;;;;5117137;28;20209;-71
2023/12/23 02:04:39;;;;;;;9.57;2.20;;;10.70;99.90;;;;;;5116956;28;20188;-71
2023/12/23 02:07:05;;;;;;;6.13;1.80;;;10.70;99.90;;;;;;5098587;28;20167;-73
2023/12/23 02:09:30;;;;;;;5.93;1.60;;;10.70;99.90;;;;;;5117073;28;20258;-71
2023/12/23 02:12:05;;;;;;;7.43;2.30;;;10.70;99.90;;;;;;5116772;28;20175;-73
2023/12/23 02:14:50;;;;;;;5.57;1.60;;;10.70;99.90;;;;;;5116345;28;20645;-71
2023/12/23 02:17:15;;;;;;;6.13;1.90;;;10.70;99.90;;;;;;5116791;28;20171;-71
2023/12/23 02:19:41;;;;;;;10.93;2.40;;;10.60;99.90;;;;;;5116644;28;20164;-73
2023/12/23 02:22:06;;;;;;;5.87;1.83;;;10.60;99.90;;;;;;5116775;28;20179;-73
2023/12/23 02:24:32;;;;;;;3.73;1.63;;;10.50;99.90;;;;;;5116478;28;20615;-73
2023/12/23 02:27:09;;;;;;;8.13;1.97;;;10.60;99.90;;;;;;5116613;28;20223;-72
2023/12/23 02:29:36;;;;;;;8.73;2.03;;;10.60;99.90;;;;;;5097787;28;20206;-73
2023/12/23 02:32:03;;;;;;;5.37;1.83;;;10.60;99.90;;;;;;5116579;28;20257;-73
2023/12/23 02:34:29;;;;;;;6.30;2.07;;;10.60;99.90;;;;;;5116282;28;20178;-73
2023/12/23 02:36:55;;;;;;;4.43;1.60;;;10.60;99.90;;;;;;5116266;28;20219;-73
2023/12/23 02:39:20;;;;;;;5.57;1.73;;;10.60;99.90;;;;;;5116437;28;20174;-72
2023/12/23 02:41:46;;;;;;;4.20;1.80;;;10.60;99.90;;;;;;5116334;28;20537;-73
2023/12/23 02:44:11;;;;;;;8.97;2.37;;;10.50;99.90;;;;;;5115848;28;20618;-73
2023/12/23 02:46:37;;;;;;;5.70;1.97;;;10.60;99.90;;;;;;5097932;28;20703;-72
2023/12/23 02:49:03;;;;;;;5.70;1.57;;;10.70;99.90;;;;;;5116116;28;20179;-72
2023/12/23 02:51:28;;;;;;;8.13;2.00;;;10.60;99.90;;;;;;5116058;28;20186;-72
2023/12/23 02:53:54;;;;;;;4.50;1.70;;;10.50;99.90;;;;;;5116188;28;20196;-72
2023/12/23 02:56:19;;;;;;;7.33;1.80;;;10.50;99.90;;;;;;5115868;28;20244;-72
2023/12/23 02:58:45;;;;;;;7.20;1.90;;;10.50;99.90;;;;;;5115672;28;20174;-72
2023/12/23 03:01:11;;;;;;;6.50;1.90;;;10.60;99.90;;;;;;5115912;28;20171;-72
2023/12/23 03:03:37;;;;;;;6.03;1.63;;;10.60;99.90;;;;;;5115865;28;20175;-72
2023/12/23 03:06:03;;;;;;;6.90;1.90;;;10.60;99.90;;;;;;5115563;28;20175;-72
2023/12/23 03:08:28;;;;;;;5.00;1.97;;;10.60;99.90;;;;;;5115982;28;20175;-72
2023/12/23 03:10:54;;;;;;;5.93;2.17;;;10.60;99.90;;;;;;5115615;28;20199;-72
2023/12/23 03:13:19;;;;;;;6.90;1.90;;;10.60;99.90;;;;;;5096993;28;20200;-72
2023/12/23 03:15:45;;;;;;;8.73;1.70;;;10.70;99.90;;;;;;5115458;28;20213;-72
2023/12/23 03:18:10;;;;;;;6.40;2.00;;;10.70;99.90;;;;;;5115624;28;20622;-72
2023/12/23 03:20:36;;;;;;;4.53;1.57;;;10.60;99.90;;;;;;5115387;28;20183;-72
2023/12/23 03:23:05;;;;;;;7.20;1.93;;;10.60;99.90;;;;;;5115484;28;20195;-72
2023/12/23 03:25:30;;;;;;;4.67;1.70;;;10.70;99.90;;;;;;5115413;28;20641;-71
2023/12/23 03:27:56;;;;;;;5.90;1.90;;;10.70;99.90;;;;;;5114992;28;20230;-72
2023/12/23 03:30:21;;;;;;;9.10;2.17;;;10.70;99.90;;;;;;5115424;28;20638;-72
2023/12/23 03:32:47;;;;;;;7.90;2.20;;;10.70;99.90;;;;;;5115629;28;20597;-71
2023/12/23 03:35:13;;;;;;;3.10;1.27;;;10.70;99.90;;;;;;5115110;28;20551;-72
2023/12/23 03:37:38;;;;;;;5.33;1.67;;;10.70;99.90;;;;;;5115504;28;20167;-72
2023/12/23 03:40:07;;;;;;;7.00;1.87;;;10.70;99.90;;;;;;5114553;28;20202;-72
2023/12/23 03:42:32;;;;;;;9.87;2.27;;;10.60;99.90;;;;;;5114897;28;20179;-72
2023/12/23 03:44:58;;;;;;;8.20;2.03;;;10.70;99.90;;;;;;5115115;28;20223;-72
2023/12/23 03:47:23;;;;;;;7.97;2.10;;;10.70;99.90;;;;;;5115017;28;20171;-72
2023/12/23 03:49:49;;;;;;;4.07;1.70;;;10.80;99.90;;;;;;5114926;28;20178;-71
2023/12/23 03:52:14;;;;;;;5.33;1.67;;;10.70;99.90;;;;;;5114977;28;20171;-72
2023/12/23 03:54:40;;;;;;;5.83;2.00;;;10.60;99.90;;;;;;5114698;28;20191;-73
2023/12/23 03:57:05;;;;;;;9.27;2.10;;;10.60;99.90;;;;;;5114659;28;20175;-72
2023/12/23 03:59:31;;;;;;;8.17;2.30;;;10.60;99.90;;;;;;5114939;28;20522;-72
2023/12/23 04:01:57;;;;;;;8.13;1.80;;;10.70;99.90;;;;;;5114930;28;20612;-71
2023/12/23 04:04:22;;;;;;;7.03;1.97;;;10.60;99.90;;;;;;5114646;28;20167;-72
2023/12/23 04:06:48;;;;;;;7.10;1.90;;;10.60;99.90;;;;;;5114548;28;20171;-72
2023/12/23 04:09:16;;;;;;;7.33;2.20;;;10.60;99.90;;;;;;5096347;28;20273;-72
2023/12/23 04:11:41;;;;;;;5.27;1.90;;;10.60;99.90;;;;;;5114365;28;20619;-72
2023/12/23 04:14:07;;;;;;;5.97;2.10;;;10.60;99.90;;;;;;5114201;28;20234;-72
2023/12/23 04:16:32;;;;;;;5.67;1.80;;;10.60;99.90;;;;;;5114409;28;20207;-72
2023/12/23 04:18:58;;;;;;;5.27;1.63;;;10.60;99.90;;;;;;5114323;28;20175;-71
2023/12/23 04:21:23;;;;;;;6.97;1.90;;;10.60;99.90;;;;;;5113977;28;20182;-73
2023/12/23 04:23:49;;;;;;;7.23;2.10;;;10.60;99.90;;;;;;5114260;28;20198;-71
2023/12/23 04:26:14;;;;;;;7.73;2.00;;;10.60;99.90;;;;;;5114287;28;20687;-72
2023/12/23 04:28:40;;;;;;;4.00;1.70;;;10.70;99.90;;;;;;5075454;28;20220;-72
2023/12/23 04:31:06;;;;;;;7.27;2.30;;;10.70;99.90;;;;;;5073464;28;20176;-71
2023/12/23 04:33:34;;;;;;;6.43;2.43;;;10.70;99.90;;;;;;5073134;28;20169;-73
2023/12/23 04:36:00;;;;;;;8.03;2.20;;;10.70;99.90;;;;;;5073533;28;20252;-72
2023/12/23 04:38:25;;;;;;;8.33;2.37;;;10.70;99.90;;;;;;5072958;28;20207;-72
2023/12/23 04:40:51;;;;;;;7.60;2.00;;;10.70;99.90;;;;;;5073033;28;20712;-72
2023/12/23 04:43:16;;;;;;;10.03;2.27;;;10.70;99.90;;;;;;5073567;28;20651;-72
2023/12/23 04:45:42;;;;;;;13.63;2.50;;;10.70;99.90;;;;;;5073319;28;20177;-72
2023/12/23 04:48:07;;;;;;;4.23;1.70;;;10.50;99.90;;;;;;5073287;28;20177;-71
2023/12/23 04:50:33;;;;;;;5.23;1.83;;;10.40;99.90;;;;;;5073301;28;20206;-72
2023/12/23 04:52:59;;;;;;;8.30;2.33;;;10.30;99.90;;;;;;5072964;28;20697;-72
2023/12/23 04:55:24;;;;;;;6.87;2.47;;;10.20;99.90;;;;;;5072865;28;20282;-72
2023/12/23 04:57:50;;;;;;;12.23;2.37;;;10.20;99.90;;;;;;5072905;28;20173;-72
2023/12/23 05:00:16;;;;;;;8.57;2.33;;;10.20;99.90;;;;;;5071910;28;20176;-72
2023/12/23 05:02:41;;;;;;;5.90;1.80;;;10.10;99.90;;;;;;5073052;28;20180;-73
2023/12/23 05:05:07;;;;;;;8.60;2.27;;;10.10;99.90;;;;;;5072873;28;20520;-72
2023/12/23 05:07:33;;;;;;;7.13;2.33;;;10.10;99.90;;;;;;5072794;28;20215;-72
2023/12/23 05:09:59;;;;;;;8.37;2.20;;;10.00;99.90;;;;;;5073035;28;20266;-71
2023/12/23 05:12:24;;;;;;;5.67;1.93;;;10.00;99.90;;;;;;5071550;28;20223;-72
2023/12/23 05:14:51;;;;;;;6.97;2.33;;;10.00;99.90;;;;;;5073053;28;20183;-72
2023/12/23 05:17:16;;;;;;;9.77;2.10;;;10.00;99.90;;;;;;5072716;28;20188;-71
2023/12/23 05:19:42;;;;;;;9.97;2.23;;;10.10;99.90;;;;;;5072856;28;20187;-72
2023/12/23 05:22:08;;;;;;;12.83;2.73;;;10.10;99.90;;;;;;5072613;28;20175;-72
2023/12/23 05:24:36;;;;;;;11.63;2.63;;;10.10;99.90;;;;;;5071451;28;20608;-71
2023/12/23 05:27:02;;;;;;;8.63;2.30;;;10.10;99.90;;;;;;5079293;28;20269;-72
2023/12/23 05:29:28;;;;;;;12.07;3.10;;;10.10;99.90;;;;;;5113343;28;20203;-71
2023/12/23 05:31:53;;;;;;;14.20;2.83;;;10.10;99.90;;;;;;5113506;28;20167;-72
2023/12/23 05:34:19;;;;;;;11.03;2.50;;;10.10;99.90;;;;;;5112954;28;20178;-72
2023/12/23 05:36:45;;;;;;;9.77;2.57;;;10.20;99.90;;;;;;5112992;28;20207;-73
2023/12/23 05:39:10;;;;;;;8.40;2.47;;;10.20;99.90;;;;;;5113358;28;20629;-72
2023/12/23 05:41:36;;;;;;;6.30;2.53;;;10.20;99.90;;;;;;5112563;28;20171;-72
2023/12/23 05:44:02;;;;;;;17.57;2.90;;;10.20;99.90;;;;;;5094929;28;20171;-72
2023/12/23 05:46:27;;;;;;;8.27;2.27;;;10.20;99.90;;;;;;5112821;28;20178;-71
2023/12/23 05:48:53;;;;;;;9.00;2.40;;;10.30;99.90;;;;;;5113146;28;20163;-72
2023/12/23 05:51:18;;;;;;;9.27;2.67;;;10.30;99.90;;;;;;5112818;28;20301;-72
2023/12/23 05:53:44;;;;;;;11.93;3.00;;;10.30;99.90;;;;;;5112646;28;20191;-72
2023/12/23 05:56:09;;;;;;;7.87;2.23;;;10.30;99.90;;;;;;5094323;28;20685;-71
2023/12/23 05:58:35;;;;;;;11.10;2.73;;;10.30;99.90;;;;;;5113022;28;20246;-72
2023/12/23 06:01:01;;;;;;;8.03;2.50;;;10.40;99.90;;;;;;5112835;28;20221;-71
2023/12/23 06:03:26;;;;;;;8.87;2.77;;;10.40;99.90;;;;;;5115057;28;20167;-71
2023/12/23 06:05:52;;;;;;;12.80;2.60;;;10.40;99.90;;;;;;5115813;28;20167;-72
2023/12/23 06:08:17;;;;;;;10.83;2.50;;;10.40;99.90;;;;;;5098309;28;20532;-73
2023/12/23 06:10:43;;;;;;;12.23;2.80;;;10.40;99.90;;;;;;5116864;28;20175;-72
2023/12/23 06:13:08;;;;;;;9.33;2.40;;;10.50;99.90;;;;;;5116450;28;20275;-72
2023/12/23 06:15:34;;;;;;;12.87;3.17;;;10.40;99.90;;;;;;5116443;28;20268;-72
2023/12/23 06:17:59;;;;;;;9.83;2.60;;;10.50;99.90;;;;;;5116864;28;20171;-73
2023/12/23 06:20:25;;;;;;;12.27;2.77;;;10.50;99.90;;;;;;5116038;28;20178;-72
2023/12/23 06:22:51;;;;;;;9.67;2.27;;;10.50;99.90;;;;;;5116358;28;20170;-72
2023/12/23 06:25:16;;;;;;;14.17;3.23;;;10.50;99.90;;;;;;5116114;28;20198;-72
2023/12/23 06:27:42;;;;;;;12.13;2.77;;;10.50;99.90;;;;;;5115989;28;20249;-72
2023/12/23 06:30:08;;;;;;;11.10;2.87;;;10.60;99.90;;;;;;5116432;28;20175;-72
2023/12/23 06:32:33;;;;;;;9.37;2.67;;;10.60;99.90;;;;;;5116140;28;20618;-72
2023/12/23 06:34:59;;;;;;;8.50;2.43;;;10.60;99.90;;;;;;5115716;28;20175;-71
2023/12/23 06:37:24;;;;;;;11.90;2.90;;;10.70;99.90;;;;;;5097763;28;20194;-72
2023/12/23 06:39:50;;;;;;;9.40;2.80;;;10.70;99.90;;;;;;5115845;28;20182;-72
2023/12/23 06:42:15;;;;;;;8.90;2.70;;;10.80;99.90;;;;;;5116061;28;20182;-73
2023/12/23 06:44:41;;;;;;;7.33;2.60;;;10.80;99.90;;;;;;5115780;28;20611;-72
2023/12/23 06:47:07;;;;;;;11.90;2.60;;;10.70;99.90;;;;;;5097745;28;20175;-72
2023/12/23 06:49:33;;;;;;;14.17;3.20;;;10.80;99.90;;;;;;5115472;28;20177;-71
2023/12/23 06:51:58;;;;;;;8.53;2.73;;;10.80;99.90;;;;;;5115253;28;20338;-72
2023/12/23 06:54:24;;;;;;;11.70;2.70;;;10.80;99.90;;;;;;5115782;28;20206;-72
2023/12/23 06:56:49;;;;;;;6.40;2.57;;;10.80;99.90;;;;;;5115719;28;20211;-72
2023/12/23 06:59:15;;;;;;;9.33;2.50;;;10.90;99.90;;;;;;5115481;28;20190;-73
2023/12/23 07:01:41;;;;;;;7.03;2.33;;;10.90;99.90;;;;;;5114995;28;20179;-72
2023/12/23 07:04:07;;;;;;;8.83;2.50;;;10.90;99.90;;;;;;5115649;28;20180;-72
2023/12/23 07:06:33;;;;;;;11.80;2.73;;;10.80;99.90;;;;;;5097289;28;20260;-72
2023/12/23 07:08:59;;;;;;;9.50;2.50;;;10.90;99.90;;;;;;5097387;28;20202;-71
2023/12/23 07:11:25;;;;;;;13.73;3.27;;;10.90;99.90;;;;;;5115470;28;20687;-71
2023/12/23 07:13:53;;;;;;;11.43;2.77;;;10.90;99.90;;;;;;5114879;28;20192;-72
2023/12/23 07:16:19;;;;;;;5.30;2.77;;;10.90;99.90;;;;;;5114630;28;20207;-73
2023/12/23 07:18:45;;;;;;;8.17;2.47;;;10.90;99.90;;;;;;5114671;28;20182;-72
2023/12/23 07:21:11;;;;;;;10.57;2.63;;;10.80;99.90;;;;;;5097001;28;20228;-73
2023/12/23 07:23:36;;;;;;;8.00;2.70;;;10.90;99.90;;;;;;5097020;28;20173;-73
2023/12/23 07:26:03;;;;;;;12.00;3.30;;;10.90;99.90;;;;;;5097240;28;20203;-72
2023/12/23 07:28:29;;;;;;;12.93;3.20;;;10.90;99.90;;;;;;5114691;28;20294;-72
2023/12/23 07:30:55;;;;;;;6.10;2.47;;;10.90;99.90;;;;;;5114925;28;20168;-72
2023/12/23 07:33:21;;;;;;;8.70;2.73;;;10.90;99.90;;;;;;5114978;28;20182;-72
2023/12/23 07:35:46;;;;;;;13.80;2.97;;;11.00;99.90;;;;;;5096491;28;20207;-72
2023/12/23 07:38:12;;;;;;;6.33;2.10;;;10.90;99.90;;;;;;5115165;28;20622;-72
2023/12/23 07:40:57;;;;;;;7.53;2.17;;;10.90;99.90;;;;;;5115607;28;20300;-72
2023/12/23 07:43:22;;;;;;;8.20;2.53;;;10.80;99.90;;;;;;5113847;28;20205;-72
2023/12/23 07:45:48;;;;;;;12.77;2.33;;;10.80;99.90;;;;;;5114400;28;20175;-73
2023/12/23 07:48:14;;;;;;;7.63;2.20;;;10.90;99.90;;;;;;5114360;28;20171;-72
2023/12/23 07:50:39;;;;;;;10.17;2.17;;;10.90;99.90;;;;;;5114604;28;20182;-75
2023/12/23 07:53:05;;;;;;;11.30;2.20;;;10.90;99.90;;;;;;5114815;28;20196;-72
2023/12/23 07:55:30;;;;;;;6.40;2.13;;;10.90;99.90;;;;;;5114307;28;20521;-73
2023/12/23 07:57:56;;;;;;;7.07;2.53;;;10.90;99.90;;;;;;5114196;28;20254;-72
2023/12/23 08:00:22;;;;;;;10.27;2.20;;;10.90;99.90;;;;;;5114318;28;20163;-72
2023/12/23 08:02:47;;;;;;;10.87;2.57;;;10.90;99.90;;;;;;5114649;28;20201;-72
2023/12/23 08:05:13;;;;;;;10.93;2.20;;;10.90;99.90;;;;;;5114537;28;20167;-72
2023/12/23 08:07:41;;;;;;;10.27;2.40;;;10.90;99.90;;;;;;5095354;28;20247;-72
2023/12/23 08:10:07;;;;;;;6.70;2.07;;;10.90;99.90;;;;;;5114178;28;20664;-73
2023/12/23 08:12:33;;;;;;;7.90;1.73;;;10.90;99.90;;;;;;5114286;28;20195;-72
2023/12/23 08:14:59;;;;;;;8.77;2.47;;;10.90;99.90;;;;;;5096045;28;20178;-73
2023/12/23 08:17:24;;;;;;;7.83;2.40;;;10.90;99.90;;;;;;5113402;28;20178;-72
2023/12/23 08:19:50;;;;;;;4.77;1.90;;;11.00;99.90;;;;;;5113987;28;20537;-72
2023/12/23 08:22:15;;;;;;;5.17;1.67;;;11.00;99.90;;;;;;5114001;28;20171;-72
2023/12/23 08:24:41;;;;;;;6.20;2.03;;;11.00;99.90;;;;;;5113772;28;20614;-72
2023/12/23 08:27:07;;;;;;;9.83;2.40;;;11.00;99.90;;;;;;5113607;28;20223;-73
2023/12/23 08:29:33;;;;;;;9.13;1.87;;;11.00;99.90;;;;;;5114090;28;20171;-73
2023/12/23 08:31:58;;;;;;;8.17;1.70;;;11.00;99.90;;;;;;5113397;28;20160;-73
2023/12/23 08:34:25;;;;;;;4.40;1.77;;;11.00;99.90;;;;;;5113636;28;20202;-75
2023/12/23 08:36:51;;;;;;;4.07;1.80;;;11.10;99.90;;;;;;5113964;28;20264;-75
2023/12/23 08:39:16;;;;;;;6.73;1.87;;;11.10;99.90;;;;;;5113527;28;20167;-72
2023/12/23 08:41:42;;;;;;;5.87;1.77;;;11.20;99.90;;;;;;5113598;28;20183;-73
2023/12/23 08:44:08;;;;;;;8.77;1.87;;;11.30;99.90;;;;;;5113666;28;20178;-73
2023/12/23 08:46:33;;;;;;;7.67;1.90;;;11.30;99.90;;;;;;5112927;28;20254;-73
2023/12/23 08:48:59;;;;;;;6.53;1.73;;;11.40;99.90;;;;;;5113298;28;20622;-73
2023/12/23 08:51:29;;;;;;;6.57;1.83;;;11.40;99.90;;;;;;5113796;28;20208;-72
2023/12/23 08:53:55;;;;;;;7.13;1.73;;;11.30;99.90;;;;;;5113591;28;20175;-73
2023/12/23 08:56:20;;;;;;;5.57;1.90;;;11.40;99.90;;;;;;5093215;28;20610;-72
2023/12/23 08:58:46;;;;;;;6.20;1.60;;;11.40;99.90;;;;;;5111693;28;20186;-73
2023/12/23 09:01:11;;;;;;;6.03;1.60;;;11.30;99.90;;;;;;5112720;28;20175;-74
2023/12/23 09:03:37;;;;;;;7.10;1.90;;;11.40;99.90;;;;;;5113457;28;20183;-73
2023/12/23 09:06:03;;;;;;;8.17;2.70;;;11.30;99.90;;;;;;5112790;28;20541;-72
2023/12/23 09:08:29;;;;;;;5.70;1.80;;;11.40;99.90;;;;;;5112672;28;20562;-73
2023/12/23 09:10:55;;;;;;;7.20;2.23;;;11.40;99.90;;;;;;5113008;28;20171;-72
2023/12/23 09:13:20;;;;;;;9.03;2.07;;;11.40;99.90;;;;;;5113314;28;20674;-73
2023/12/23 09:15:46;;;;;;;5.57;1.90;;;11.40;99.90;;;;;;5112842;28;20285;-73
2023/12/23 09:18:11;;;;;;;6.83;1.77;;;11.40;99.90;;;;;;5113020;28;20254;-73
2023/12/23 09:20:37;;;;;;;6.80;2.07;;;11.40;99.90;;;;;;5113159;28;20289;-73
2023/12/23 09:23:03;;;;;;;7.40;1.70;;;11.50;99.90;;;;;;5112815;28;20194;-73
2023/12/23 09:25:28;;;;;;;5.87;1.97;;;11.50;99.90;;;;;;5094965;28;20268;-73
2023/12/23 09:27:54;;;;;;;3.63;1.50;;;11.40;99.90;;;;;;5113054;28;20231;-73
2023/12/23 09:30:19;;;;;;;9.47;2.47;;;11.40;99.90;;;;;;5112648;28;20262;-73
2023/12/23 09:32:45;;;;;;;5.40;1.83;;;11.40;99.90;;;;;;5094614;28;20172;-74
2023/12/23 09:35:10;;;;;;;6.70;1.90;;;11.40;99.90;;;;;;5112571;28;20203;-73
2023/12/23 09:37:36;;;;;;;6.43;2.20;;;11.50;99.90;;;;;;5113870;28;20500;-73
2023/12/23 09:40:02;;;;;;;4.70;2.10;;;11.50;99.90;;;;;;5117423;28;20736;-73
2023/12/23 09:42:28;;;;;;;5.27;1.67;;;11.50;99.90;;;;;;5116956;28;20227;-73
2023/12/23 09:44:54;;;;;;;11.17;2.30;;;11.50;99.90;;;;;;5116400;28;20167;-73
2023/12/23 09:47:20;;;;;;;4.47;1.50;;;11.60;99.90;;;;;;5117347;28;20179;-73
2023/12/23 09:49:46;;;;;;;9.23;1.70;;;11.60;99.90;;;;;;5116564;28;20159;-73
2023/12/23 09:52:13;;;;;;;5.03;1.80;;;11.60;99.90;;;;;;5116851;28;20175;-73
2023/12/23 09:54:52;;;;;;;7.17;2.20;;;11.60;99.90;;;;;;5116539;28;20224;-72
2023/12/23 09:57:19;;;;;;;5.27;1.90;;;11.60;99.90;;;;;;5116351;28;20269;-73
2023/12/23 09:59:44;;;;;;;5.87;1.90;;;11.60;99.90;;;;;;5116468;28;20163;-73
2023/12/23 10:02:10;;;;;;;4.73;1.83;;;11.50;99.90;;;;;;5117283;28;20217;-74
2023/12/23 10:04:36;;;;;;;6.13;1.93;;;11.60;99.90;;;;;;5116866;28;20229;-73
2023/12/23 10:07:01;;;;;;;6.87;2.30;;;11.60;99.90;;;;;;5116199;28;20171;-74
2023/12/23 10:09:30;;;;;;;6.87;1.60;;;11.70;99.90;;;;;;5116291;28;20575;-74
2023/12/23 10:11:55;;;;;;;6.40;1.90;;;11.70;99.90;;;;;;5116463;28;20207;-74
2023/12/23 10:14:22;;;;;;;4.73;1.77;;;11.80;99.90;;;;;;5098251;28;20211;-73
2023/12/23 10:16:48;;;;;;;3.23;1.70;;;11.80;99.90;;;;;;5116576;28;20650;-74
2023/12/23 10:19:13;;;;;;;4.10;1.80;;;11.80;99.90;;;;;;5115955;28;20224;-73
2023/12/23 10:21:41;;;;;;;5.77;1.93;;;11.80;99.90;;;;;;5115495;28;20179;-74
2023/12/23 10:24:07;;;;;;;6.37;2.00;;;11.90;99.90;;;;;;5116579;28;20164;-72
2023/12/23 10:26:34;;;;;;;5.37;2.10;;;11.90;99.90;;;;;;5116152;28;20178;-73
2023/12/23 10:29:03;;;;;;;7.80;2.00;;;12.10;99.90;;;;;;5116453;28;20272;-73
2023/12/23 10:31:31;;;;;;;3.47;1.60;;;12.10;99.90;;;;;;5097337;28;20349;-73
2023/12/23 10:34:02;;;;;;;5.60;1.77;;;12.10;99.90;;;;;;5115780;28;20163;-73
2023/12/23 10:36:27;;;;;;;6.97;1.90;;;12.10;99.90;;;;;;5116149;28;20680;-73
2023/12/23 10:39:00;;;;;;;4.20;1.70;;;12.10;99.90;;;;;;5116316;28;20242;-73
2023/12/23 10:41:32;;;;;;;4.40;1.70;;;12.20;99.90;;;;;;5115360;28;20183;-73
2023/12/23 10:43:59;;;;;;;6.87;1.87;;;12.10;99.90;;;;;;5113874;28;20168;-74
2023/12/23 10:46:26;;;;;;;4.80;1.50;;;12.10;99.90;;;;;;5114877;28;20167;-73
2023/12/23 10:48:52;;;;;;;5.43;1.70;;;12.00;99.90;;;;;;5115483;28;20183;-75
2023/12/23 10:51:19;;;;;;;4.73;1.67;;;12.00;99.90;;;;;;5116079;28;20174;-73
2023/12/23 10:53:45;;;;;;;8.03;1.73;;;12.00;99.90;;;;;;5115734;28;20171;-74
2023/12/23 10:56:12;;;;;;;3.93;1.70;;;12.00;99.90;;;;;;5115019;28;20206;-74
2023/12/23 10:58:39;;;;;;;4.90;1.80;;;12.10;99.90;;;;;;5114935;28;20190;-73
2023/12/23 11:01:08;;;;;;;5.20;1.90;;;12.10;99.90;;;;;;5115609;28;20163;-74
2023/12/23 11:03:35;;;;;;;6.03;2.00;;;12.10;99.90;;;;;;5115080;28;20207;-74
2023/12/23 11:06:04;;;;;;;5.13;1.97;;;12.10;99.90;;;;;;5115142;28;20253;-73
2023/12/23 11:08:32;;;;;;;4.60;1.80;;;12.10;99.90;;;;;;5115350;28;20309;-74
2023/12/23 11:10:58;;;;;;;3.97;1.60;;;12.10;99.90;;;;;;5114889;28;20199;-73
2023/12/23 11:13:26;;;;;;;5.93;2.50;;;12.20;99.90;;;;;;5114930;28;20268;-73
2023/12/23 11:15:53;;;;;;;5.93;2.00;;;12.30;99.90;;;;;;5114810;28;20252;-74
2023/12/23 11:18:21;;;;;;;6.80;1.60;;;12.30;99.90;;;;;;5114505;28;20167;-73
2023/12/23 11:20:49;;;;;;;4.57;1.80;;;12.40;99.90;;;;;;5115337;28;20214;-72
2023/12/23 11:23:30;;;;;;;7.17;1.90;;;12.40;99.90;;;;;;5115188;28;20251;-73
2023/12/23 11:25:56;;;;;;;6.80;1.50;;;12.40;99.90;;;;;;5114751;28;20697;-73
2023/12/23 11:28:24;;;;;;;7.33;2.00;;;12.40;99.90;;;;;;5114778;28;20307;-74
2023/12/23 11:30:52;;;;;;;6.47;1.87;;;12.50;99.90;;;;;;5115121;28;20175;-73
2023/12/23 11:33:19;;;;;;;6.17;1.90;;;12.40;99.90;;;;;;5115267;28;20175;-74
2023/12/23 11:35:49;;;;;;;5.23;1.63;;;12.40;99.90;;;;;;5114615;28;20211;-73
2023/12/23 11:38:15;;;;;;;5.30;2.10;;;12.30;99.90;;;;;;5114710;28;20163;-73
2023/12/23 11:40:41;;;;;;;5.77;1.80;;;12.30;99.90;;;;;;5114735;28;20177;-73
2023/12/23 11:43:07;;;;;;;4.63;1.70;;;12.40;99.90;;;;;;5113613;28;20228;-73
2023/12/23 11:45:33;;;;;;;7.07;2.17;;;12.40;99.90;;;;;;5113735;28;20250;-74
2023/12/23 11:47:58;;;;;;;5.83;1.73;;;12.50;99.90;;;;;;5114769;28;20504;-73
2023/12/23 11:50:24;;;;;;;3.00;1.40;;;12.50;99.90;;;;;;5114078;28;20186;-74
2023/12/23 11:52:50;;;;;;;7.00;1.80;;;12.60;99.90;;;;;;5114687;28;20256;-75
2023/12/23 11:55:17;;;;;;;6.50;2.23;;;12.60;99.90;;;;;;5113505;28;20217;-74
2023/12/23 11:57:43;;;;;;;6.37;1.73;;;12.80;99.90;;;;;;5114136;28;20206;-74
2023/12/23 12:00:09;;;;;;;7.20;1.70;;;12.90;99.90;;;;;;5114149;28;20262;-73
2023/12/23 12:02:35;;;;;;;3.83;1.40;;;12.80;99.90;;;;;;5095855;28;20267;-74
2023/12/23 12:05:01;;;;;;;7.27;1.73;;;12.80;99.90;;;;;;5113782;28;20258;-74
2023/12/23 12:07:28;;;;;;;4.07;1.33;;;12.90;99.90;;;;;;5113986;28;20208;-74
2023/12/23 12:09:54;;;;;;;6.53;1.60;;;12.80;99.90;;;;;;5114003;28;20199;-74
2023/12/23 12:12:20;;;;;;;4.77;1.40;;;12.90;99.90;;;;;;5095441;28;20230;-74
2023/12/23 12:14:45;;;;;;;5.67;1.60;;;12.80;99.90;;;;;;5113968;28;20213;-74
2023/12/23 12:17:11;;;;;;;5.67;1.47;;;12.80;99.90;;;;;;5113563;28;20235;-74
2023/12/23 12:19:36;;;;;;;3.70;1.73;;;12.80;99.90;;;;;;5095500;28;20216;-74
2023/12/23 12:22:03;;;;;;;3.03;1.50;;;12.80;99.90;;;;;;5095479;28;20586;-73
2023/12/23 12:24:30;;;;;;;3.87;1.77;;;12.80;99.90;;;;;;5113390;28;20579;-74
2023/12/23 12:26:59;;;;;;;6.20;1.93;;;12.80;99.90;;;;;;5113837;28;20175;-73
2023/12/23 12:29:24;;;;;;;6.17;1.70;;;12.80;99.90;;;;;;5114202;28;20187;-73
2023/12/23 12:31:50;;;;;;;9.20;1.70;;;12.70;99.90;;;;;;5113826;28;20596;-73
2023/12/23 12:34:16;;;;;;;5.57;2.00;;;12.70;99.90;;;;;;5113303;28;20163;-74
2023/12/23 12:36:42;;;;;;;4.47;1.83;;;12.70;99.90;;;;;;5113308;28;20672;-73
2023/12/23 12:39:09;;;;;;;6.30;1.60;;;12.70;99.90;;;;;;5094959;28;20175;-73